sensor_id;sensor_type;location;lat;lon;timestamp;pressure;altitude;pressure_sealevel;temperature;humidity
71966;BME280;59836;52.132;5.442;2022-09-09T00:00:26;100812.78;;;15.52;87.49
71966;BME280;59836;52.132;5.442;2022-09-09T00:03:27;100800.91;;;15.56;87.19
71966;BME280;59836;52.132;5.442;2022-09-09T00:06:20;100794.94;;;15.54;87.14
71966;BME280;59836;52.132;5.442;2022-09-09T00:12:47;100792.03;;;15.50;87.52
71966;BME280;59836;52.132;5.442;2022-09-09T00:18:51;100785.44;;;15.52;87.51
71966;BME280;59836;52.132;5.442;2022-09-09T00:21:28;100780.78;;;15.52;87.65
71966;BME280;59836;52.132;5.442;2022-09-09T00:30:19;100787.97;;;15.48;87.46
71966;BME280;59836;52.132;5.442;2022-09-09T00:32:50;100791.81;;;15.47;87.72
71966;BME280;59836;52.132;5.442;2022-09-09T00:35:56;100786.34;;;15.47;88.05
71966;BME280;59836;52.132;5.442;2022-09-09T00:38:56;100788.56;;;15.45;88.12
71966;BME280;59836;52.132;5.442;2022-09-09T00:44:57;100780.69;;;15.43;87.83
71966;BME280;59836;52.132;5.442;2022-09-09T00:47:43;100777.97;;;15.43;87.58
71966;BME280;59836;52.132;5.442;2022-09-09T01:06:31;100781.81;;;15.28;87.80
71966;BME280;59836;52.132;5.442;2022-09-09T01:09:37;100785.16;;;15.25;87.54
71966;BME280;59836;52.132;5.442;2022-09-09T01:12:26;100788.50;;;15.22;87.49
71966;BME280;59836;52.132;5.442;2022-09-09T01:15:03;100797.28;;;15.19;87.54
71966;BME280;59836;52.132;5.442;2022-09-09T01:18:01;100790.81;;;15.15;87.39
71966;BME280;59836;52.132;5.442;2022-09-09T01:20:47;100788.69;;;15.12;87.61
71966;BME280;59836;52.132;5.442;2022-09-09T01:26:43;100781.38;;;15.07;87.78
71966;BME280;59836;52.132;5.442;2022-09-09T01:29:18;100774.59;;;15.04;87.79
71966;BME280;59836;52.132;5.442;2022-09-09T01:32:37;100776.31;;;15.00;87.55
71966;BME280;59836;52.132;5.442;2022-09-09T01:38:36;100770.53;;;15.02;87.59
71966;BME280;59836;52.132;5.442;2022-09-09T01:41:14;100772.47;;;15.01;88.04
71966;BME280;59836;52.132;5.442;2022-09-09T01:43:45;100769.25;;;14.99;87.79
71966;BME280;59836;52.132;5.442;2022-09-09T01:46:26;100774.19;;;14.97;87.57
71966;BME280;59836;52.132;5.442;2022-09-09T01:49:10;100769.34;;;14.94;87.93
71966;BME280;59836;52.132;5.442;2022-09-09T01:51:46;100770.94;;;14.95;87.91
71966;BME280;59836;52.132;5.442;2022-09-09T01:54:37;100773.16;;;14.93;87.84
71966;BME280;59836;52.132;5.442;2022-09-09T02:03:56;100760.81;;;14.82;88.00
71966;BME280;59836;52.132;5.442;2022-09-09T02:06:39;100759.69;;;14.83;87.71
71966;BME280;59836;52.132;5.442;2022-09-09T02:09:11;100758.28;;;14.85;87.89
71966;BME280;59836;52.132;5.442;2022-09-09T02:11:42;100756.97;;;14.83;87.41
71966;BME280;59836;52.132;5.442;2022-09-09T02:14:25;100760.00;;;14.81;87.69
71966;BME280;59836;52.132;5.442;2022-09-09T02:17:08;100750.50;;;14.79;87.43
71966;BME280;59836;52.132;5.442;2022-09-09T02:20:14;100750.50;;;14.79;87.75
71966;BME280;59836;52.132;5.442;2022-09-09T02:26:39;100749.47;;;14.74;87.59
71966;BME280;59836;52.132;5.442;2022-09-09T02:29:27;100754.13;;;14.74;87.49
71966;BME280;59836;52.132;5.442;2022-09-09T02:31:59;100743.50;;;14.72;87.62
71966;BME280;59836;52.132;5.442;2022-09-09T02:34:40;100742.38;;;14.73;87.17
71966;BME280;59836;52.132;5.442;2022-09-09T02:37:11;100747.34;;;14.71;87.57
71966;BME280;59836;52.132;5.442;2022-09-09T02:39:42;100747.13;;;14.68;87.64
71966;BME280;59836;52.132;5.442;2022-09-09T02:42:19;100744.75;;;14.61;87.75
71966;BME280;59836;52.132;5.442;2022-09-09T02:44:49;100740.72;;;14.58;87.71
71966;BME280;59836;52.132;5.442;2022-09-09T02:50:28;100737.16;;;14.58;87.79
71966;BME280;59836;52.132;5.442;2022-09-09T02:56:42;100745.34;;;14.58;87.32
71966;BME280;59836;52.132;5.442;2022-09-09T02:59:16;100744.31;;;14.54;87.88
71966;BME280;59836;52.132;5.442;2022-09-09T03:01:50;100738.59;;;14.55;87.46
71966;BME280;59836;52.132;5.442;2022-09-09T03:04:31;100741.09;;;14.52;87.46
71966;BME280;59836;52.132;5.442;2022-09-09T03:06:58;100734.59;;;14.47;87.78
71966;BME280;59836;52.132;5.442;2022-09-09T03:09:32;100740.06;;;14.47;87.63
71966;BME280;59836;52.132;5.442;2022-09-09T03:12:13;100738.66;;;14.50;87.77
71966;BME280;59836;52.132;5.442;2022-09-09T03:14:47;100743.31;;;14.50;87.70
71966;BME280;59836;52.132;5.442;2022-09-09T03:17:28;100738.94;;;14.49;87.85
71966;BME280;59836;52.132;5.442;2022-09-09T03:20:09;100740.06;;;14.47;87.58
71966;BME280;59836;52.132;5.442;2022-09-09T03:22:43;100743.31;;;14.50;87.40
71966;BME280;59836;52.132;5.442;2022-09-09T03:25:18;100740.88;;;14.48;87.47
71966;BME280;59836;52.132;5.442;2022-09-09T03:27:44;100736.22;;;14.49;87.45
71966;BME280;59836;52.132;5.442;2022-09-09T03:30:11;100732.97;;;14.46;87.48
71966;BME280;59836;52.132;5.442;2022-09-09T03:32:41;100731.69;;;14.44;87.13
71966;BME280;59836;52.132;5.442;2022-09-09T03:35:31;100737.41;;;14.42;87.66
71966;BME280;59836;52.132;5.442;2022-09-09T03:38:04;100741.25;;;14.41;87.05
71966;BME280;59836;52.132;5.442;2022-09-09T03:41:02;100729.31;;;14.37;87.33
71966;BME280;59836;52.132;5.442;2022-09-09T03:43:35;100738.09;;;14.34;87.66
71966;BME280;59836;52.132;5.442;2022-09-09T03:46:04;100730.41;;;14.36;87.57
71966;BME280;59836;52.132;5.442;2022-09-09T03:48:44;100738.00;;;14.39;87.73
71966;BME280;59836;52.132;5.442;2022-09-09T03:51:12;100737.22;;;14.39;87.61
71966;BME280;59836;52.132;5.442;2022-09-09T03:53:50;100726.31;;;14.39;87.82
71966;BME280;59836;52.132;5.442;2022-09-09T03:56:19;100733.16;;;14.36;87.40
71966;BME280;59836;52.132;5.442;2022-09-09T04:02:05;100732.03;;;14.37;87.54
71966;BME280;59836;52.132;5.442;2022-09-09T04:04:46;100731.53;;;14.35;87.76
71966;BME280;59836;52.132;5.442;2022-09-09T04:07:31;100726.66;;;14.32;87.65
71966;BME280;59836;52.132;5.442;2022-09-09T04:10:31;100726.66;;;14.32;87.86
71966;BME280;59836;52.132;5.442;2022-09-09T04:13:05;100722.84;;;14.33;87.54
71966;BME280;59836;52.132;5.442;2022-09-09T04:15:42;100729.91;;;14.34;87.60
71966;BME280;59836;52.132;5.442;2022-09-09T04:18:26;100733.22;;;14.31;87.80
71966;BME280;59836;52.132;5.442;2022-09-09T04:21:20;100724.47;;;14.34;87.86
71966;BME280;59836;52.132;5.442;2022-09-09T04:23:57;100726.66;;;14.32;87.77
71966;BME280;59836;52.132;5.442;2022-09-09T04:26:27;100720.09;;;14.33;87.67
71966;BME280;59836;52.132;5.442;2022-09-09T04:29:12;100722.84;;;14.33;87.83
71966;BME280;59836;52.132;5.442;2022-09-09T04:31:43;100717.59;;;14.37;87.81
71966;BME280;59836;52.132;5.442;2022-09-09T04:34:16;100721.44;;;14.36;87.88
71966;BME280;59836;52.132;5.442;2022-09-09T04:36:43;100716.78;;;14.36;87.62
71966;BME280;59836;52.132;5.442;2022-09-09T04:39:30;100724.69;;;14.38;87.65
71966;BME280;59836;52.132;5.442;2022-09-09T04:42:10;100726.00;;;14.40;87.89
71966;BME280;59836;52.132;5.442;2022-09-09T04:44:43;100719.44;;;14.41;87.95
71966;BME280;59836;52.132;5.442;2022-09-09T04:47:11;100715.06;;;14.40;88.20
71966;BME280;59836;52.132;5.442;2022-09-09T04:49:51;100704.16;;;14.40;88.04
71966;BME280;59836;52.132;5.442;2022-09-09T04:52:22;100707.91;;;14.44;88.23
71966;BME280;59836;52.132;5.442;2022-09-09T04:55:19;100708.44;;;14.46;88.00
71966;BME280;59836;52.132;5.442;2022-09-09T05:01:09;100701.84;;;14.47;87.59
71966;BME280;59836;52.132;5.442;2022-09-09T05:07:00;100708.94;;;14.49;87.81
71966;BME280;59836;52.132;5.442;2022-09-09T05:09:35;100709.75;;;14.49;87.65
71966;BME280;59836;52.132;5.442;2022-09-09T05:12:02;100712.78;;;14.47;87.71
71966;BME280;59836;52.132;5.442;2022-09-09T05:14:48;100712.78;;;14.47;87.77
71966;BME280;59836;52.132;5.442;2022-09-09T05:17:17;100705.69;;;14.46;87.95
71966;BME280;59836;52.132;5.442;2022-09-09T05:19:50;100711.16;;;14.46;87.87
71966;BME280;59836;52.132;5.442;2022-09-09T05:22:20;100702.97;;;14.46;87.97
71966;BME280;59836;52.132;5.442;2022-09-09T05:24:51;100709.53;;;14.45;88.25
71966;BME280;59836;52.132;5.442;2022-09-09T05:27:19;100700.84;;;14.43;87.70
71966;BME280;59836;52.132;5.442;2022-09-09T05:29:46;100701.06;;;14.47;88.07
71966;BME280;59836;52.132;5.442;2022-09-09T05:32:16;100693.69;;;14.47;87.99
71966;BME280;59836;52.132;5.442;2022-09-09T05:34:56;100690.44;;;14.45;88.25
71966;BME280;59836;52.132;5.442;2022-09-09T05:37:23;100689.31;;;14.46;88.34
71966;BME280;59836;52.132;5.442;2022-09-09T05:40:01;100688.81;;;14.44;88.39
71966;BME280;59836;52.132;5.442;2022-09-09T05:42:51;100694.28;;;14.44;88.40
71966;BME280;59836;52.132;5.442;2022-09-09T05:45:30;100699.63;;;14.50;88.27
71966;BME280;59836;52.132;5.442;2022-09-09T05:47:57;100695.00;;;14.50;88.15
71966;BME280;59836;52.132;5.442;2022-09-09T05:50:54;100692.56;;;14.49;88.52
71966;BME280;59836;52.132;5.442;2022-09-09T05:53:20;100686.50;;;14.52;88.64
71966;BME280;59836;52.132;5.442;2022-09-09T05:56:06;100696.81;;;14.55;88.34
71966;BME280;59836;52.132;5.442;2022-09-09T05:58:34;100695.19;;;14.54;88.54
71966;BME280;59836;52.132;5.442;2022-09-09T06:01:05;100700.06;;;14.57;88.29
71966;BME280;59836;52.132;5.442;2022-09-09T06:03:47;100708.16;;;14.62;88.57
71966;BME280;59836;52.132;5.442;2022-09-09T06:06:27;100714.63;;;14.66;88.39
71966;BME280;59836;52.132;5.442;2022-09-09T06:08:58;100711.41;;;14.64;88.56
71966;BME280;59836;52.132;5.442;2022-09-09T06:11:29;100714.63;;;14.66;89.07
71966;BME280;59836;52.132;5.442;2022-09-09T06:14:00;100705.06;;;14.69;88.97
71966;BME280;59836;52.132;5.442;2022-09-09T06:16:39;100711.06;;;14.71;88.83
71966;BME280;59836;52.132;5.442;2022-09-09T06:19:12;100699.72;;;14.78;89.08
71966;BME280;59836;52.132;5.442;2022-09-09T06:21:39;100706.19;;;14.82;89.09
71966;BME280;59836;52.132;5.442;2022-09-09T06:24:08;100708.31;;;14.85;89.00
71966;BME280;59836;52.132;5.442;2022-09-09T06:26:39;100696.31;;;14.86;89.34
71966;BME280;59836;52.132;5.442;2022-09-09T06:29:16;100699.72;;;14.91;89.03
71966;BME280;59836;52.132;5.442;2022-09-09T06:31:51;100689.03;;;14.95;88.97
71966;BME280;59836;52.132;5.442;2022-09-09T06:34:22;100700.44;;;14.97;89.76
71966;BME280;59836;52.132;5.442;2022-09-09T06:36:57;100693.06;;;14.98;89.43
71966;BME280;59836;52.132;5.442;2022-09-09T06:39:25;100694.06;;;15.02;89.61
71966;BME280;59836;52.132;5.442;2022-09-09T06:41:52;100689.00;;;15.09;89.80
71966;BME280;59836;52.132;5.442;2022-09-09T06:44:26;100683.16;;;15.16;89.11
71966;BME280;59836;52.132;5.442;2022-09-09T06:47:00;100693.38;;;15.24;90.11
71966;BME280;59836;52.132;5.442;2022-09-09T06:49:30;100693.44;;;15.33;90.30
71966;BME280;59836;52.132;5.442;2022-09-09T06:52:26;100685.31;;;15.42;89.78
71966;BME280;59836;52.132;5.442;2022-09-09T06:54:56;100684.94;;;15.48;90.26
71966;BME280;59836;52.132;5.442;2022-09-09T06:57:45;100697.66;;;15.53;89.99
71966;BME280;59836;52.132;5.442;2022-09-09T07:00:11;100691.06;;;15.54;90.13
71966;BME280;59836;52.132;5.442;2022-09-09T07:02:41;100676.28;;;15.55;90.73
71966;BME280;59836;52.132;5.442;2022-09-09T07:05:19;100684.50;;;15.55;90.34
71966;BME280;59836;52.132;5.442;2022-09-09T07:07:55;100685.31;;;15.56;89.66
71966;BME280;59836;52.132;5.442;2022-09-09T07:10:34;100692.59;;;15.60;89.96
71966;BME280;59836;52.132;5.442;2022-09-09T07:13:04;100689.72;;;15.65;90.27
71966;BME280;59836;52.132;5.442;2022-09-09T07:15:48;100682.75;;;15.73;90.25
71966;BME280;59836;52.132;5.442;2022-09-09T07:18:15;100695.69;;;15.82;89.85
71966;BME280;59836;52.132;5.442;2022-09-09T07:21:16;100689.00;;;15.88;90.06
71966;BME280;59836;52.132;5.442;2022-09-09T07:23:47;100695.78;;;15.90;89.00
71966;BME280;59836;52.132;5.442;2022-09-09T07:26:28;100681.97;;;15.96;89.07
71966;BME280;59836;52.132;5.442;2022-09-09T07:29:23;100685.22;;;15.98;89.21
71966;BME280;59836;52.132;5.442;2022-09-09T07:31:50;100691.31;;;15.94;89.34
71966;BME280;59836;52.132;5.442;2022-09-09T07:34:44;100707.50;;;15.91;88.97
71966;BME280;59836;52.132;5.442;2022-09-09T07:37:14;100705.59;;;15.91;88.92
71966;BME280;59836;52.132;5.442;2022-09-09T07:39:45;100707.22;;;15.92;89.32
71966;BME280;59836;52.132;5.442;2022-09-09T07:42:13;100701.41;;;15.94;88.81
71966;BME280;59836;52.132;5.442;2022-09-09T07:45:00;100698.38;;;15.96;89.18
71966;BME280;59836;52.132;5.442;2022-09-09T07:47:31;100699.38;;;16.00;88.95
71966;BME280;59836;52.132;5.442;2022-09-09T07:50:03;100689.94;;;16.06;88.69
71966;BME280;59836;52.132;5.442;2022-09-09T07:53:05;100692.56;;;16.11;87.96
71966;BME280;59836;52.132;5.442;2022-09-09T07:55:32;100690.81;;;16.15;88.55
71966;BME280;59836;52.132;5.442;2022-09-09T07:58:02;100690.69;;;16.20;88.18
71966;BME280;59836;52.132;5.442;2022-09-09T08:00:33;100688.00;;;16.29;89.01
71966;BME280;59836;52.132;5.442;2022-09-09T08:03:02;100693.16;;;16.31;89.02
71966;BME280;59836;52.132;5.442;2022-09-09T08:05:50;100688.31;;;16.28;88.36
71966;BME280;59836;52.132;5.442;2022-09-09T08:08:36;100691.06;;;16.28;87.86
71966;BME280;59836;52.132;5.442;2022-09-09T08:11:25;100691.69;;;16.25;88.11
71966;BME280;59836;52.132;5.442;2022-09-09T08:13:55;100696.66;;;16.22;88.73
71966;BME280;59836;52.132;5.442;2022-09-09T08:16:35;100697.16;;;16.25;89.14
71966;BME280;59836;52.132;5.442;2022-09-09T08:19:05;100702.50;;;16.30;87.48
71966;BME280;59836;52.132;5.442;2022-09-09T08:21:39;100701.38;;;16.31;88.13
71966;BME280;59836;52.132;5.442;2022-09-09T08:27:19;100702.00;;;16.28;87.93
71966;BME280;59836;52.132;5.442;2022-09-09T08:29:46;100708.59;;;16.27;86.74
71966;BME280;59836;52.132;5.442;2022-09-09T08:32:14;100708.09;;;16.25;86.93
71966;BME280;59836;52.132;5.442;2022-09-09T08:34:50;100704.53;;;16.24;88.21
71966;BME280;59836;52.132;5.442;2022-09-09T08:37:20;100702.13;;;16.22;87.74
71966;BME280;59836;52.132;5.442;2022-09-09T08:39:47;100716.72;;;16.18;87.60
71966;BME280;59836;52.132;5.442;2022-09-09T08:42:41;100715.44;;;16.15;86.91
71966;BME280;59836;52.132;5.442;2022-09-09T08:45:35;100717.19;;;16.11;87.84
71966;BME280;59836;52.132;5.442;2022-09-09T08:51:30;100723.66;;;16.15;87.11
71966;BME280;59836;52.132;5.442;2022-09-09T08:54:27;100725.25;;;16.16;87.73
71966;BME280;59836;52.132;5.442;2022-09-09T08:57:34;100715.09;;;16.17;86.91
71966;BME280;59836;52.132;5.442;2022-09-09T09:00:19;100721.41;;;16.17;86.92
71966;BME280;59836;52.132;5.442;2022-09-09T09:02:56;100723.03;;;16.18;86.96
71966;BME280;59836;52.132;5.442;2022-09-09T09:05:35;100724.63;;;16.19;86.91
71966;BME280;59836;52.132;5.442;2022-09-09T09:08:26;100722.41;;;16.21;86.53
71966;BME280;59836;52.132;5.442;2022-09-09T09:10:59;100729.50;;;16.22;87.73
71966;BME280;59836;52.132;5.442;2022-09-09T09:13:56;100735.13;;;16.26;86.69
71966;BME280;59836;52.132;5.442;2022-09-09T09:19:21;100726.63;;;16.28;87.55
71966;BME280;59836;52.132;5.442;2022-09-09T09:22:05;100729.66;;;16.26;87.95
71966;BME280;59836;52.132;5.442;2022-09-09T09:27:40;100743.66;;;16.25;86.74
71966;BME280;59836;52.132;5.442;2022-09-09T09:30:39;100743.66;;;16.25;87.08
71966;BME280;59836;52.132;5.442;2022-09-09T09:33:41;100739.81;;;16.26;86.91
71966;BME280;59836;52.132;5.442;2022-09-09T09:36:13;100740.31;;;16.28;87.13
71966;BME280;59836;52.132;5.442;2022-09-09T09:38:57;100737.59;;;16.28;86.70
71966;BME280;59836;52.132;5.442;2022-09-09T09:41:45;100738.56;;;16.32;86.48
71966;BME280;59836;52.132;5.442;2022-09-09T09:44:34;100733.28;;;16.35;86.53
71966;BME280;59836;52.132;5.442;2022-09-09T09:49:57;100733.47;;;16.39;86.07
71966;BME280;59836;52.132;5.442;2022-09-09T09:52:32;100735.59;;;16.42;86.31
71966;BME280;59836;52.132;5.442;2022-09-09T09:55:13;100732.03;;;16.42;86.12
71966;BME280;59836;52.132;5.442;2022-09-09T09:57:41;100732.03;;;16.42;86.33
71966;BME280;59836;52.132;5.442;2022-09-09T10:00:21;100735.25;;;16.44;86.75
71966;BME280;59836;52.132;5.442;2022-09-09T10:02:48;100738.50;;;16.46;86.83
71966;BME280;59836;52.132;5.442;2022-09-09T10:05:24;100731.06;;;16.46;87.03
71966;BME280;59836;52.132;5.442;2022-09-09T10:08:11;100722.06;;;16.46;86.77
71966;BME280;59836;52.132;5.442;2022-09-09T10:13:53;100740.13;;;16.47;85.64
71966;BME280;59836;52.132;5.442;2022-09-09T10:16:45;100720.94;;;16.47;85.81
71966;BME280;59836;52.132;5.442;2022-09-09T10:27:56;100724.63;;;16.42;86.09
71966;BME280;59836;52.132;5.442;2022-09-09T10:33:24;100731.56;;;16.48;85.30
71966;BME280;59836;52.132;5.442;2022-09-09T10:36:13;100735.44;;;16.47;85.53
71966;BME280;59836;52.132;5.442;2022-09-09T10:39:11;100738.16;;;16.47;86.26
71966;BME280;59836;52.132;5.442;2022-09-09T10:42:01;100747.69;;;16.50;87.08
71966;BME280;59836;52.132;5.442;2022-09-09T10:44:47;100738.66;;;16.49;86.92
71966;BME280;59836;52.132;5.442;2022-09-09T10:50:45;100750.06;;;16.43;87.77
71966;BME280;59836;52.132;5.442;2022-09-09T10:56:06;100749.28;;;16.42;87.81
71966;BME280;59836;52.132;5.442;2022-09-09T11:04:30;100739.38;;;16.55;88.73
71966;BME280;59836;52.132;5.442;2022-09-09T11:07:07;100735.53;;;16.65;89.27
71966;BME280;59836;52.132;5.442;2022-09-09T11:09:47;100732.41;;;16.80;89.21
71966;BME280;59836;52.132;5.442;2022-09-09T11:12:19;100728.28;;;16.92;88.99
71966;BME280;59836;52.132;5.442;2022-09-09T11:14:54;100723.34;;;17.03;88.48
71966;BME280;59836;52.132;5.442;2022-09-09T11:17:31;100718.41;;;17.14;89.18
71966;BME280;59836;52.132;5.442;2022-09-09T11:20:15;100725.84;;;17.22;88.03
71966;BME280;59836;52.132;5.442;2022-09-09T11:22:46;100715.22;;;17.29;86.25
71966;BME280;59836;52.132;5.442;2022-09-09T11:25:23;100727.13;;;17.24;85.54
71966;BME280;59836;52.132;5.442;2022-09-09T11:28:09;100715.66;;;17.22;86.35
71966;BME280;59836;52.132;5.442;2022-09-09T11:30:58;100724.03;;;17.17;86.65
71966;BME280;59836;52.132;5.442;2022-09-09T11:34:02;100707.25;;;17.10;86.60
71966;BME280;59836;52.132;5.442;2022-09-09T11:37:09;100715.78;;;17.08;85.51
71966;BME280;59836;52.132;5.442;2022-09-09T11:40:15;100707.44;;;17.14;87.11
71966;BME280;59836;52.132;5.442;2022-09-09T11:42:46;100705.19;;;17.16;86.68
71966;BME280;59836;52.132;5.442;2022-09-09T11:45:24;100710.97;;;17.14;86.89
71966;BME280;59836;52.132;5.442;2022-09-09T11:47:59;100708.22;;;17.14;87.46
71966;BME280;59836;52.132;5.442;2022-09-09T11:50:34;100705.34;;;17.19;86.67
71966;BME280;59836;52.132;5.442;2022-09-09T11:55:41;100703.91;;;17.22;84.25
71966;BME280;59836;52.132;5.442;2022-09-09T12:00:44;100710.97;;;17.14;86.00
71966;BME280;59836;52.132;5.442;2022-09-09T12:03:34;100710.31;;;17.08;87.05
71966;BME280;59836;52.132;5.442;2022-09-09T12:06:24;100711.44;;;17.07;87.11
71966;BME280;59836;52.132;5.442;2022-09-09T12:08:57;100712.38;;;17.03;88.04
71966;BME280;59836;52.132;5.442;2022-09-09T12:11:31;100713.84;;;17.00;87.79
71966;BME280;59836;52.132;5.442;2022-09-09T12:13:59;100713.00;;;17.00;87.50
71966;BME280;59836;52.132;5.442;2022-09-09T12:16:35;100720.25;;;16.95;87.67
71966;BME280;59836;52.132;5.442;2022-09-09T12:19:14;100719.56;;;16.90;87.60
71966;BME280;59836;52.132;5.442;2022-09-09T12:22:15;100725.81;;;16.81;88.25
71966;BME280;59836;52.132;5.442;2022-09-09T12:25:00;100716.78;;;16.81;88.48
71966;BME280;59836;52.132;5.442;2022-09-09T12:27:35;100722.56;;;16.79;88.59
71966;BME280;59836;52.132;5.442;2022-09-09T12:30:10;100714.81;;;16.73;88.60
71966;BME280;59836;52.132;5.442;2022-09-09T12:32:38;100713.69;;;16.74;88.90
71966;BME280;59836;52.132;5.442;2022-09-09T12:35:18;100717.91;;;16.80;88.91
71966;BME280;59836;52.132;5.442;2022-09-09T12:37:51;100711.47;;;16.85;89.25
71966;BME280;59836;52.132;5.442;2022-09-09T12:40:31;100715.69;;;16.91;89.00
71966;BME280;59836;52.132;5.442;2022-09-09T12:43:14;100716.19;;;16.93;88.86
71966;BME280;59836;52.132;5.442;2022-09-09T12:45:43;100709.59;;;16.94;89.18
71966;BME280;59836;52.132;5.442;2022-09-09T12:48:12;100714.47;;;16.97;89.09
71966;BME280;59836;52.132;5.442;2022-09-09T12:50:47;100711.59;;;17.02;88.60
71966;BME280;59836;52.132;5.442;2022-09-09T12:53:24;100708.22;;;17.05;88.13
71966;BME280;59836;52.132;5.442;2022-09-09T12:55:56;100697.56;;;17.04;88.52
71966;BME280;59836;52.132;5.442;2022-09-09T12:58:23;100701.91;;;17.05;89.03
71966;BME280;59836;52.132;5.442;2022-09-09T13:00:53;100698.03;;;17.06;88.90
71966;BME280;59836;52.132;5.442;2022-09-09T13:03:24;100701.59;;;17.06;88.58
71966;BME280;59836;52.132;5.442;2022-09-09T13:05:52;100697.09;;;17.10;89.98
71966;BME280;59836;52.132;5.442;2022-09-09T13:08:19;100691.78;;;17.14;88.86
71966;BME280;59836;52.132;5.442;2022-09-09T13:10:56;100692.31;;;17.25;88.97
71966;BME280;59836;52.132;5.442;2022-09-09T13:13:34;100705.38;;;17.37;89.16
71966;BME280;59836;52.132;5.442;2022-09-09T13:16:03;100697.19;;;17.46;88.91
71966;BME280;59836;52.132;5.442;2022-09-09T13:18:37;100710.56;;;17.56;89.00
71966;BME280;59836;52.132;5.442;2022-09-09T13:21:06;100707.34;;;17.54;87.12
71966;BME280;59836;52.132;5.442;2022-09-09T13:23:35;100715.25;;;17.47;86.44
71966;BME280;59836;52.132;5.442;2022-09-09T13:28:32;100695.72;;;17.39;87.67
71966;BME280;59836;52.132;5.442;2022-09-09T13:31:04;100698.47;;;17.39;86.83
71966;BME280;59836;52.132;5.442;2022-09-09T13:33:37;100703.31;;;17.43;87.42
71966;BME280;59836;52.132;5.442;2022-09-09T13:36:06;100696.06;;;17.47;87.27
71966;BME280;59836;52.132;5.442;2022-09-09T13:38:40;100690.25;;;17.48;86.93
71966;BME280;59836;52.132;5.442;2022-09-09T13:41:21;100692.19;;;17.48;86.67
71966;BME280;59836;52.132;5.442;2022-09-09T13:43:51;100690.91;;;17.45;86.90
71966;BME280;59836;52.132;5.442;2022-09-09T13:46:37;100690.09;;;17.45;86.96
71966;BME280;59836;52.132;5.442;2022-09-09T13:51:39;100686.38;;;17.40;86.68
71966;BME280;59836;52.132;5.442;2022-09-09T13:54:09;100686.03;;;17.42;87.07
71966;BME280;59836;52.132;5.442;2022-09-09T13:56:37;100688.47;;;17.44;87.12
71966;BME280;59836;52.132;5.442;2022-09-09T13:59:06;100693.16;;;17.43;87.52
71966;BME280;59836;52.132;5.442;2022-09-09T14:01:35;100686.88;;;17.43;86.93
71966;BME280;59836;52.132;5.442;2022-09-09T14:04:04;100695.59;;;17.45;85.96
71966;BME280;59836;52.132;5.442;2022-09-09T14:06:34;100687.66;;;17.43;86.57
71966;BME280;59836;52.132;5.442;2022-09-09T14:09:04;100690.91;;;17.45;86.74
71966;BME280;59836;52.132;5.442;2022-09-09T14:11:32;100687.66;;;17.43;87.47
71966;BME280;59836;52.132;5.442;2022-09-09T14:13:58;100692.50;;;17.46;87.73
71966;BME280;59836;52.132;5.442;2022-09-09T14:16:27;100684.63;;;17.45;87.10
71966;BME280;59836;52.132;5.442;2022-09-09T14:18:58;100686.72;;;17.48;87.36
71966;BME280;59836;52.132;5.442;2022-09-09T14:21:27;100678.50;;;17.48;86.64
71966;BME280;59836;52.132;5.442;2022-09-09T14:23:53;100673.00;;;17.48;86.19
71966;BME280;59836;52.132;5.442;2022-09-09T14:26:21;100675.75;;;17.48;87.23
71966;BME280;59836;52.132;5.442;2022-09-09T14:28:48;100681.22;;;17.48;87.78
71966;BME280;59836;52.132;5.442;2022-09-09T14:31:21;100675.25;;;17.46;87.15
71966;BME280;59836;52.132;5.442;2022-09-09T14:33:47;100675.25;;;17.46;86.52
71966;BME280;59836;52.132;5.442;2022-09-09T14:36:14;100682.19;;;17.43;86.61
71966;BME280;59836;52.132;5.442;2022-09-09T14:38:41;100682.50;;;17.41;87.28
71966;BME280;59836;52.132;5.442;2022-09-09T14:41:15;100675.22;;;17.37;87.00
71966;BME280;59836;52.132;5.442;2022-09-09T14:43:45;100677.00;;;17.33;87.61
71966;BME280;59836;52.132;5.442;2022-09-09T14:46:16;100675.38;;;17.32;88.75
71966;BME280;59836;52.132;5.442;2022-09-09T14:49:19;100671.03;;;17.31;88.53
71966;BME280;59836;52.132;5.442;2022-09-09T14:51:46;100671.38;;;17.29;88.68
71966;BME280;59836;52.132;5.442;2022-09-09T14:54:13;100662.66;;;17.27;89.21
71966;BME280;59836;52.132;5.442;2022-09-09T14:56:40;100665.69;;;17.25;89.18
71966;BME280;59836;52.132;5.442;2022-09-09T14:59:07;100665.22;;;17.23;88.82
71966;BME280;59836;52.132;5.442;2022-09-09T15:01:33;100663.94;;;17.21;88.93
71966;BME280;59836;52.132;5.442;2022-09-09T15:04:04;100657.63;;;17.20;89.42
71966;BME280;59836;52.132;5.442;2022-09-09T15:06:33;100652.97;;;17.21;89.91
71966;BME280;59836;52.132;5.442;2022-09-09T15:09:00;100668.28;;;17.22;89.87
71966;BME280;59836;52.132;5.442;2022-09-09T15:11:28;100674.25;;;17.24;90.26
71966;BME280;59836;52.132;5.442;2022-09-09T15:13:57;100671.84;;;17.31;89.97
71966;BME280;59836;52.132;5.442;2022-09-09T15:16:27;100682.03;;;17.39;90.17
71966;BME280;59836;52.132;5.442;2022-09-09T15:18:58;100684.78;;;17.48;91.20
71966;BME280;59836;52.132;5.442;2022-09-09T15:21:36;100680.91;;;17.58;90.20
71966;BME280;59836;52.132;5.442;2022-09-09T15:24:05;100690.56;;;17.64;90.04
71966;BME280;59836;52.132;5.442;2022-09-09T15:26:39;100684.59;;;17.62;88.93
71966;BME280;59836;52.132;5.442;2022-09-09T15:29:06;100693.31;;;17.55;88.09
71966;BME280;59836;52.132;5.442;2022-09-09T15:31:49;100696.84;;;17.56;88.71
71966;BME280;59836;52.132;5.442;2022-09-09T15:34:21;100706.56;;;17.53;89.07
71966;BME280;59836;52.132;5.442;2022-09-09T15:36:48;100703.63;;;17.50;88.04
71966;BME280;59836;52.132;5.442;2022-09-09T15:39:28;100706.38;;;17.50;88.96